createdAt,value
2023-03-11T00:04:31.382Z,98.60
2023-03-11T00:09:35.304Z,98.70
2023-03-11T00:14:38.210Z,98.60
2023-03-11T00:19:41.182Z,98.50
2023-03-11T00:24:44.110Z,98.40
2023-03-11T00:29:47.127Z,98.50
2023-03-11T00:34:50.148Z,98.40
2023-03-11T00:39:53.440Z,97.80
2023-03-11T00:44:57.023Z,97.10
2023-03-11T00:50:00.366Z,96.20
2023-03-11T00:55:03.630Z,96.10
2023-03-11T01:00:11.628Z,95.50
2023-03-11T01:05:15.299Z,95.20
2023-03-11T01:10:18.894Z,95.40
2023-03-11T01:15:40.124Z,95.50
2023-03-11T01:20:43.547Z,95.50
2023-03-11T01:25:46.448Z,95.30
2023-03-11T01:30:49.495Z,95.10
2023-03-11T01:35:53.068Z,95.10
2023-03-11T01:40:56.617Z,95.20
2023-03-11T01:46:02.178Z,95.40
2023-03-11T01:51:07.231Z,95.70
2023-03-11T01:56:10.664Z,95.90
2023-03-11T02:01:13.687Z,96.10
2023-03-11T02:06:22.032Z,95.70
2023-03-11T02:11:29.819Z,95.30
2023-03-11T02:16:33.291Z,94.60
2023-03-11T02:21:36.528Z,93.30
2023-03-11T02:26:57.500Z,92.60
2023-03-11T02:32:06.350Z,92.10
2023-03-11T02:37:12.920Z,90.40
2023-03-11T02:42:27.240Z,90.40
2023-03-11T02:47:30.810Z,88.80
2023-03-11T02:52:35.819Z,88.10
2023-03-11T02:57:39.240Z,87.20
2023-03-11T03:02:44.015Z,85.40
2023-03-11T03:07:48.904Z,85.10
2023-03-11T03:12:52.033Z,84.40
2023-03-11T03:17:54.955Z,84.10
2023-03-11T03:22:57.811Z,83.90
2023-03-11T03:28:00.739Z,83.70
2023-03-11T03:33:04.279Z,83.00
2023-03-11T03:38:07.268Z,83.30
2023-03-11T03:43:10.869Z,84.00
2023-03-11T03:48:14.047Z,83.30
2023-03-11T03:53:17.227Z,83.10
2023-03-11T03:58:20.492Z,81.80
2023-03-11T04:03:24.240Z,80.40
2023-03-11T04:08:27.359Z,79.30
2023-03-11T04:13:30.435Z,79.50
2023-03-11T04:18:35.234Z,78.30
2023-03-11T04:23:38.538Z,77.70
2023-03-11T04:28:41.757Z,78.20
2023-03-11T04:33:44.738Z,78.20
2023-03-11T04:38:47.732Z,75.60
2023-03-11T04:43:50.710Z,73.40
2023-03-11T04:48:53.722Z,73.50
2023-03-11T04:53:57.090Z,73.00
2023-03-11T04:59:01.036Z,73.70
2023-03-11T05:04:04.257Z,75.10
2023-03-11T05:09:07.154Z,76.40
2023-03-11T05:14:10.140Z,75.90
2023-03-11T05:19:42.306Z,75.70
2023-03-11T05:24:46.958Z,72.70
2023-03-11T05:29:49.931Z,71.90
2023-03-11T05:34:52.904Z,71.30
2023-03-11T05:39:55.940Z,69.00
2023-03-11T05:44:59.387Z,69.00
2023-03-11T05:50:02.734Z,68.20
2023-03-11T05:55:06.324Z,67.00
2023-03-11T06:00:13.896Z,67.30
2023-03-11T06:05:17.165Z,67.40
2023-03-11T06:10:20.261Z,67.80
2023-03-11T06:15:23.176Z,67.50
2023-03-11T06:20:26.544Z,67.10
2023-03-11T06:25:29.477Z,67.80
2023-03-11T06:30:32.252Z,67.30
2023-03-11T06:35:35.318Z,67.60
2023-03-11T06:40:38.441Z,67.30
2023-03-11T06:45:41.667Z,67.30
2023-03-11T06:50:44.970Z,66.70
2023-03-11T06:56:20.005Z,66.60
2023-03-11T07:01:25.772Z,66.80
2023-03-11T07:06:29.301Z,66.80
2023-03-11T07:11:32.343Z,66.80
2023-03-11T07:16:35.549Z,66.70
2023-03-11T07:21:39.365Z,66.50
2023-03-11T07:26:44.302Z,66.10
2023-03-11T07:31:47.809Z,67.40
2023-03-11T07:36:50.845Z,67.30
2023-03-11T07:41:53.918Z,68.00
2023-03-11T07:46:57.415Z,68.60
2023-03-11T07:52:00.660Z,67.70
2023-03-11T07:57:03.845Z,68.50
2023-03-11T08:02:07.247Z,68.90
2023-03-11T08:07:10.262Z,67.70
2023-03-11T08:12:13.248Z,67.30
2023-03-11T08:17:16.001Z,67.40
2023-03-11T08:22:19.164Z,67.00
2023-03-11T08:27:22.097Z,67.40
2023-03-11T08:32:25.198Z,65.80
2023-03-11T08:37:31.567Z,65.40
2023-03-11T08:42:37.083Z,64.70
2023-03-11T08:47:40.967Z,62.50
2023-03-11T08:52:44.599Z,63.40
2023-03-11T08:57:47.603Z,65.10
2023-03-11T09:02:50.714Z,62.60
2023-03-11T09:07:53.976Z,63.20
2023-03-11T09:12:56.711Z,64.00
2023-03-11T09:17:59.828Z,64.30
2023-03-11T09:23:02.741Z,65.40
2023-03-11T09:28:06.083Z,65.00
2023-03-11T09:33:09.490Z,66.00
2023-03-11T09:38:12.473Z,68.20
2023-03-11T09:43:48.665Z,66.70
2023-03-11T09:49:48.233Z,66.80
2023-03-11T09:54:56.232Z,66.80
2023-03-11T10:00:02.217Z,67.40
2023-03-11T10:05:33.285Z,66.70
2023-03-11T10:10:47.391Z,66.50
2023-03-11T10:16:06.575Z,65.80
2023-03-11T10:21:47.778Z,66.00
2023-03-11T10:26:58.369Z,68.00
2023-03-11T10:32:13.060Z,65.60
2023-03-11T10:37:46.569Z,63.40
2023-03-11T10:42:54.157Z,64.70
2023-03-11T10:47:58.249Z,64.40
2023-03-11T10:53:16.390Z,62.40
2023-03-11T10:58:27.900Z,64.70
2023-03-11T11:03:31.384Z,64.50
2023-03-11T11:08:34.618Z,63.90
2023-03-11T11:13:37.595Z,62.10
2023-03-11T11:18:49.439Z,61.70
2023-03-11T11:24:27.457Z,61.20
2023-03-11T11:29:30.623Z,60.90
2023-03-11T11:34:35.340Z,61.20
2023-03-11T11:39:51.930Z,62.30
2023-03-11T11:45:03.507Z,62.00
2023-03-11T11:50:31.991Z,61.90
2023-03-11T11:55:38.587Z,63.20
2023-03-11T12:00:58.316Z,62.90
2023-03-11T12:06:10.773Z,64.20
2023-03-11T12:11:30.400Z,63.10
2023-03-11T12:17:14.205Z,62.10
2023-03-11T12:22:53.991Z,61.10
2023-03-11T12:28:04.900Z,60.30
2023-03-11T12:33:19.136Z,59.60
2023-03-11T12:38:40.820Z,60.50
2023-03-11T12:43:43.564Z,61.40
2023-03-11T12:49:08.931Z,61.80
2023-03-11T12:54:34.343Z,62.20
2023-03-11T13:00:34.931Z,61.60
2023-03-11T13:06:54.116Z,62.10
2023-03-11T13:11:58.060Z,61.80
2023-03-11T13:17:28.293Z,62.20
2023-03-11T13:22:52.194Z,62.30
2023-03-11T13:28:36.934Z,63.10
2023-03-11T13:33:51.842Z,62.60
2023-03-11T13:39:25.019Z,61.60
2023-03-11T13:44:41.178Z,61.60
2023-03-11T13:49:52.466Z,61.80
2023-03-11T13:55:27.954Z,63.40
2023-03-11T14:00:32.389Z,62.50
2023-03-11T14:05:40.199Z,62.90
2023-03-11T14:10:54.056Z,63.20
2023-03-11T14:16:19.954Z,63.10
2023-03-11T14:21:23.616Z,63.40
2023-03-11T14:26:34.198Z,63.40
2023-03-11T14:31:40.652Z,63.10
2023-03-11T14:36:44.368Z,62.80
2023-03-11T14:41:47.852Z,62.40
2023-03-11T14:46:56.164Z,61.80
2023-03-11T14:52:07.359Z,61.40
2023-03-11T14:57:31.600Z,62.40
2023-03-11T15:02:59.059Z,62.90
2023-03-11T15:08:05.058Z,63.80
2023-03-11T15:13:17.941Z,64.20
2023-03-11T15:18:38.274Z,63.70
2023-03-11T15:23:49.013Z,62.70
2023-03-11T15:29:19.744Z,63.20
2023-03-11T15:34:27.948Z,63.20
2023-03-11T15:39:30.814Z,63.20
2023-03-11T15:44:58.731Z,63.10
2023-03-11T15:50:23.489Z,63.40
2023-03-11T15:55:28.093Z,63.30
2023-03-11T16:00:31.327Z,63.20
2023-03-11T16:05:34.315Z,63.60
2023-03-11T16:10:38.341Z,63.90
2023-03-11T16:15:42.957Z,63.30
2023-03-11T16:20:53.079Z,63.20
2023-03-11T16:26:02.342Z,62.60
2023-03-11T16:31:08.667Z,63.10
2023-03-11T16:36:12.128Z,63.40
2023-03-11T16:41:16.344Z,63.70
2023-03-11T16:46:19.797Z,64.20
2023-03-11T16:51:22.769Z,64.30
2023-03-11T16:56:25.772Z,64.70
2023-03-11T17:01:28.989Z,64.60
2023-03-11T17:06:31.985Z,65.30
2023-03-11T17:11:34.829Z,65.30
2023-03-11T17:16:37.895Z,65.60
2023-03-11T17:21:41.053Z,65.20
2023-03-11T17:26:44.142Z,65.20
2023-03-11T17:31:47.534Z,64.90
2023-03-11T17:36:50.596Z,65.00
2023-03-11T17:41:53.667Z,65.50
2023-03-11T17:46:56.955Z,65.90
2023-03-11T17:52:02.612Z,66.70
2023-03-11T17:57:06.337Z,67.20
2023-03-11T18:02:14.349Z,67.40
2023-03-11T18:07:18.725Z,67.80
2023-03-11T18:12:22.021Z,67.80
2023-03-11T18:17:25.039Z,68.20
2023-03-11T18:22:28.120Z,68.40
2023-03-11T18:27:31.059Z,68.60
2023-03-11T18:32:34.277Z,68.70
2023-03-11T18:37:37.148Z,69.30
2023-03-11T18:42:40.149Z,69.40
2023-03-11T18:47:43.174Z,69.60
2023-03-11T18:52:46.174Z,69.90
2023-03-11T18:57:49.093Z,70.40
2023-03-11T19:02:54.189Z,70.60
2023-03-11T19:07:57.141Z,71.00
2023-03-11T19:13:00.332Z,71.30
2023-03-11T19:18:06.914Z,71.80
2023-03-11T19:23:11.533Z,72.30
2023-03-11T19:28:15.522Z,72.40
2023-03-11T19:33:20.032Z,72.90
2023-03-11T19:38:24.130Z,73.20
2023-03-11T19:43:27.569Z,73.70
2023-03-11T19:48:30.750Z,74.10
2023-03-11T19:53:35.959Z,74.20
2023-03-11T19:58:42.848Z,74.70
2023-03-11T20:03:46.216Z,74.90
2023-03-11T20:08:50.535Z,74.90
2023-03-11T20:13:53.500Z,75.20
2023-03-11T20:18:56.505Z,75.30
2023-03-11T20:23:59.409Z,75.10
2023-03-11T20:29:02.471Z,75.80
2023-03-11T20:34:05.610Z,75.80
2023-03-11T20:39:10.577Z,76.00
2023-03-11T20:44:14.627Z,76.60
2023-03-11T20:49:17.468Z,76.80
2023-03-11T20:54:20.580Z,77.20
2023-03-11T20:59:23.630Z,77.30
2023-03-11T21:04:26.921Z,77.30
2023-03-11T21:09:30.229Z,77.70
2023-03-11T21:14:33.235Z,78.00
2023-03-11T21:19:36.362Z,78.10
2023-03-11T21:24:39.098Z,78.10
2023-03-11T21:29:43.923Z,78.60
2023-03-11T21:34:46.895Z,78.80
2023-03-11T21:39:51.482Z,79.00
2023-03-11T21:44:54.976Z,78.90
2023-03-11T21:49:58.117Z,79.20
2023-03-11T21:55:01.158Z,79.70
2023-03-11T22:00:06.885Z,79.60
2023-03-11T22:05:10.673Z,79.90
2023-03-11T22:10:14.007Z,80.30
2023-03-11T22:15:17.331Z,81.10
2023-03-11T22:20:20.551Z,80.70
2023-03-11T22:25:23.622Z,81.10
2023-03-11T22:30:27.603Z,81.10
2023-03-11T22:35:30.945Z,81.50
2023-03-11T22:40:35.425Z,81.70
2023-03-11T22:45:38.546Z,81.80
2023-03-11T22:50:44.501Z,81.80
2023-03-11T22:55:47.597Z,83.10
2023-03-11T23:00:50.433Z,82.80
2023-03-11T23:05:54.176Z,83.30
2023-03-11T23:11:01.005Z,84.10
2023-03-11T23:16:20.987Z,84.10
2023-03-11T23:21:28.656Z,84.80
2023-03-11T23:26:34.449Z,84.60
2023-03-11T23:31:37.469Z,84.30
2023-03-11T23:36:40.700Z,84.30
2023-03-11T23:41:43.688Z,84.00
2023-03-11T23:46:46.689Z,84.00
2023-03-11T23:51:49.678Z,83.60
2023-03-11T23:56:52.597Z,83.60
